createdAt,value
2022-10-29T00:01:14.533Z,17.70
2022-10-29T00:11:41.804Z,18.20
2022-10-29T00:22:09.394Z,19.70
2022-10-29T00:32:36.845Z,18.70
2022-10-29T00:43:16.879Z,18.10
2022-10-29T00:53:48.452Z,19.00
2022-10-29T01:04:16.275Z,16.00
2022-10-29T01:14:57.611Z,14.50
2022-10-29T01:25:50.978Z,19.40
2022-10-29T01:36:26.560Z,17.50
2022-10-29T01:46:59.177Z,17.60
2022-10-29T01:57:31.495Z,16.50
2022-10-29T02:08:03.688Z,14.40
2022-10-29T02:18:31.220Z,14.60
2022-10-29T02:28:59.167Z,13.40
2022-10-29T02:39:26.484Z,10.50
2022-10-29T02:49:53.823Z,15.90
2022-10-29T03:00:21.594Z,17.60
2022-10-29T03:10:49.180Z,17.50
2022-10-29T03:21:16.517Z,16.20
2022-10-29T03:31:44.107Z,16.70
2022-10-29T03:42:11.406Z,15.00
2022-10-29T03:52:38.718Z,15.60
2022-10-29T04:03:06.123Z,12.50
2022-10-29T04:13:33.572Z,8.50
2022-10-29T04:34:48.185Z,9.30
2022-10-29T04:45:15.753Z,8.90
2022-10-29T04:55:43.284Z,8.00
2022-10-29T05:06:10.828Z,7.00
2022-10-29T05:16:38.191Z,9.50
2022-10-29T05:27:08.367Z,9.60
2022-10-29T05:37:35.943Z,10.00
2022-10-29T05:48:05.306Z,8.80
2022-10-29T05:58:32.841Z,8.20
2022-10-29T06:09:00.165Z,9.00
2022-10-29T06:19:27.618Z,10.30
2022-10-29T06:29:54.978Z,9.50
2022-10-29T06:40:22.477Z,9.90
2022-10-29T06:50:49.806Z,8.20
2022-10-29T07:01:17.406Z,9.40
2022-10-29T07:11:44.752Z,8.60
2022-10-29T07:22:12.532Z,9.80
2022-10-29T07:32:39.951Z,9.20
2022-10-29T07:43:07.454Z,9.30
2022-10-29T07:53:34.940Z,10.90
2022-10-29T08:04:02.263Z,11.20
2022-10-29T08:14:29.809Z,10.70
2022-10-29T08:24:57.160Z,9.60
2022-10-29T08:35:24.828Z,11.50
2022-10-29T08:45:54.843Z,11.10
2022-10-29T08:56:27.150Z,9.60
2022-10-29T09:07:10.808Z,8.80
2022-10-29T09:17:44.072Z,8.70
2022-10-29T09:28:25.201Z,8.00
2022-10-29T09:38:58.396Z,6.40
2022-10-29T09:49:36.684Z,7.80
2022-10-29T10:00:06.823Z,7.70
2022-10-29T10:10:35.001Z,7.30
2022-10-29T10:21:09.755Z,5.90
2022-10-29T10:31:37.101Z,7.80
2022-10-29T10:42:07.137Z,6.70
2022-10-29T10:52:35.272Z,6.70
2022-10-29T11:03:10.622Z,7.40
2022-10-29T11:13:40.711Z,6.40
2022-10-29T11:24:13.342Z,7.60
2022-10-29T11:34:46.931Z,5.70
2022-10-29T11:45:19.473Z,5.60
2022-10-29T11:55:58.008Z,5.10
2022-10-29T12:06:32.936Z,7.40
2022-10-29T12:17:10.442Z,6.90
2022-10-29T12:27:45.796Z,6.40
2022-10-29T12:38:25.847Z,5.50
2022-10-29T12:49:11.617Z,7.00
2022-10-29T12:59:39.698Z,6.70
2022-10-29T13:10:42.032Z,6.30
2022-10-29T13:21:09.825Z,7.80
2022-10-29T13:31:47.638Z,9.00
2022-10-29T13:42:15.826Z,8.00
2022-10-29T13:52:45.969Z,8.50
2022-10-29T14:03:23.148Z,8.60
2022-10-29T14:13:52.486Z,9.80
2022-10-29T14:24:19.960Z,9.60
2022-10-29T14:34:49.452Z,9.50
2022-10-29T14:45:24.071Z,10.40
2022-10-29T14:55:52.296Z,10.00
2022-10-29T15:06:22.007Z,15.00
2022-10-29T15:16:50.345Z,13.80
2022-10-29T15:27:17.892Z,11.10
2022-10-29T15:37:46.809Z,9.80
2022-10-29T15:48:36.546Z,11.40
2022-10-29T15:59:03.993Z,12.90
2022-10-29T16:09:31.327Z,13.60
2022-10-29T16:19:58.663Z,14.20
2022-10-29T16:30:26.491Z,13.60
2022-10-29T16:40:53.912Z,13.10
2022-10-29T16:51:21.334Z,13.50
2022-10-29T17:01:49.865Z,13.00
2022-10-29T17:12:17.499Z,14.80
2022-10-29T17:22:44.885Z,12.90
2022-10-29T17:33:13.077Z,13.50
2022-10-29T17:43:40.576Z,14.90
2022-10-29T17:54:08.305Z,14.50
2022-10-29T18:04:35.856Z,13.20
2022-10-29T18:15:03.462Z,11.70
2022-10-29T18:25:30.834Z,12.30
2022-10-29T18:35:59.020Z,12.30
2022-10-29T18:56:52.077Z,12.70
2022-10-29T19:07:19.477Z,14.50
2022-10-29T19:17:47.146Z,15.90
2022-10-29T19:28:14.474Z,12.10
2022-10-29T19:38:41.866Z,14.20
2022-10-29T19:49:09.400Z,15.90
2022-10-29T19:59:37.193Z,13.90
2022-10-29T20:10:05.390Z,16.00
2022-10-29T20:20:32.726Z,18.00
2022-10-29T20:31:29.767Z,18.70
2022-10-29T20:41:57.977Z,20.50
2022-10-29T20:52:25.398Z,19.20
2022-10-29T21:02:52.622Z,18.60
2022-10-29T21:13:19.988Z,19.00
2022-10-29T21:23:47.509Z,21.30
2022-10-29T21:34:14.800Z,17.30
2022-10-29T21:44:42.097Z,16.40
2022-10-29T21:55:10.309Z,20.00
2022-10-29T22:05:37.603Z,15.00
2022-10-29T22:16:06.203Z,13.10
2022-10-29T22:26:35.011Z,15.50
2022-10-29T22:37:02.360Z,14.80
2022-10-29T22:47:29.617Z,14.80
2022-10-29T22:57:58.320Z,16.70
2022-10-29T23:08:25.631Z,15.80
2022-10-29T23:18:54.048Z,16.40
2022-10-29T23:29:21.388Z,17.50
2022-10-29T23:39:48.636Z,18.90
2022-10-29T23:50:15.985Z,22.00
